Archival Weather

NSFA McMurdo Sound

NSFA McMurdo Sound, Antarctica (NZCM)

Report from: Friday, September 23, 2022 2:03 PM UTC
Current time: Sunday, December 4, 2022 11:13 AM UTC

Current weather
Weather history
Weather forecast

Present weatherLight snow, mist
Temperature-18.4°C (-1.1°F)
Wind chill-30.1°C (-22.1°F)
Dew point-23.0°C (-9.4°F)
Winds 15 kts (7.7 m/s, 17.3 mph) Vrb
Wind gusts 21 kts (10.8 m/s, 24.2 mph)
Winds variableWinds variable from East (100°) to South (170°)
Visibility1.5 mi. (2.4 km)
Clouds Ceiling: Overcast 1,400 ft. (427 m)
Altimeter28.62 in.Hg (969 mB)
Precip. events Snow ended 1:57 PM
Snow began 1:59 PM
Relative humidity67 %
Density altitude-2,684 ft. (-818 m)
Sea-level pressure107.0 kPa (1070 mB, 31.59 in.Hg)
Remarks Fully automated report
System requires maintenance
Special weather observation
Automated weather observing station with precipitation discriminator
Flight conditions Instrument Meteorological Conditions
Raw dataSPECI NZCM 231403Z AUTO 14015G21KT 100V170 2400 -SN BR OVC014 M18/M23 A2862 RMK AO2 WSHFT 1359 SNE1357B1359 SLP697 T11841230 $
An error has occurred. This application may no longer respond until reloaded. Reload 🗙